createdAt,value
2018-07-28T00:01:21.589Z,22.30
2018-07-28T00:03:50.113Z,22.40
2018-07-28T00:06:18.676Z,22.40
2018-07-28T00:08:48.017Z,22.20
2018-07-28T00:11:16.579Z,22.30
2018-07-28T00:13:45.678Z,22.30
2018-07-28T00:16:14.963Z,22.40
2018-07-28T00:18:44.103Z,22.40
2018-07-28T00:21:12.698Z,22.20
2018-07-28T00:23:41.293Z,22.20
2018-07-28T00:26:15.215Z,22.20
2018-07-28T00:28:43.858Z,22.10
2018-07-28T00:31:12.418Z,22.10
2018-07-28T00:33:41.087Z,22.00
2018-07-28T00:36:09.690Z,21.90
2018-07-28T00:38:38.155Z,21.90
2018-07-28T00:41:06.756Z,21.80
2018-07-28T00:43:35.338Z,21.80
2018-07-28T00:46:03.940Z,21.80
2018-07-28T00:48:32.800Z,21.80
2018-07-28T00:51:01.376Z,21.90
2018-07-28T00:53:29.866Z,21.80
2018-07-28T00:55:58.399Z,21.60
2018-07-28T00:58:27.056Z,21.70
2018-07-28T01:00:55.908Z,21.70
2018-07-28T01:03:25.285Z,21.70
2018-07-28T01:05:53.801Z,21.60
2018-07-28T01:08:22.629Z,21.70
2018-07-28T01:10:51.194Z,21.60
2018-07-28T01:13:19.721Z,21.70
2018-07-28T01:15:48.349Z,21.70
2018-07-28T01:18:17.033Z,21.70
2018-07-28T01:20:45.504Z,21.50
2018-07-28T01:23:13.974Z,21.50
2018-07-28T01:25:43.184Z,21.60
2018-07-28T01:28:11.757Z,21.50
2018-07-28T01:30:40.430Z,21.60
2018-07-28T01:33:09.049Z,21.40
2018-07-28T01:35:37.597Z,21.30
2018-07-28T01:38:06.181Z,21.30
2018-07-28T01:40:34.753Z,21.30
2018-07-28T01:43:03.234Z,21.20
2018-07-28T01:45:31.768Z,21.20
2018-07-28T01:48:00.295Z,21.10
2018-07-28T01:50:28.762Z,21.00
2018-07-28T01:52:57.368Z,20.90
2018-07-28T01:55:25.947Z,20.90
2018-07-28T01:57:54.441Z,20.80
2018-07-28T02:00:22.914Z,20.80
2018-07-28T02:02:51.409Z,20.80
2018-07-28T02:05:19.952Z,20.80
2018-07-28T02:07:48.425Z,20.80
2018-07-28T02:10:23.370Z,20.80
2018-07-28T02:12:51.875Z,20.70
2018-07-28T02:15:20.455Z,20.90
2018-07-28T02:17:48.913Z,20.90
2018-07-28T02:20:17.388Z,20.90
2018-07-28T02:22:45.865Z,20.90
2018-07-28T02:25:14.514Z,20.80
2018-07-28T02:27:43.578Z,20.90
2018-07-28T02:30:12.097Z,20.90
2018-07-28T02:32:40.587Z,21.00
2018-07-28T02:35:09.431Z,21.00
2018-07-28T02:37:37.940Z,20.80
2018-07-28T02:40:07.435Z,20.60
2018-07-28T02:42:35.930Z,20.50
2018-07-28T02:45:04.592Z,20.50
2018-07-28T02:47:33.071Z,20.50
2018-07-28T02:50:02.321Z,20.60
2018-07-28T02:52:31.472Z,20.70
2018-07-28T02:54:59.982Z,20.70
2018-07-28T02:57:29.317Z,20.70
2018-07-28T02:59:57.783Z,20.70
2018-07-28T03:02:26.263Z,20.60
2018-07-28T03:04:54.767Z,20.60
2018-07-28T03:07:23.305Z,20.60
2018-07-28T03:09:51.897Z,20.40
2018-07-28T03:12:20.379Z,20.30
2018-07-28T03:14:48.985Z,20.30
2018-07-28T03:17:17.465Z,20.40
2018-07-28T03:19:46.002Z,20.30
2018-07-28T03:22:14.503Z,20.40
2018-07-28T03:24:43.006Z,20.30
2018-07-28T03:27:11.487Z,20.40
2018-07-28T03:29:39.978Z,20.30
2018-07-28T03:32:08.438Z,20.20
2018-07-28T03:34:36.957Z,20.10
2018-07-28T03:37:05.747Z,20.10
2018-07-28T03:39:34.233Z,20.10
2018-07-28T03:42:02.928Z,20.00
2018-07-28T03:44:31.519Z,19.90
2018-07-28T03:47:00.014Z,19.90
2018-07-28T03:49:28.488Z,20.10
2018-07-28T03:51:56.985Z,20.30
2018-07-28T03:54:25.406Z,20.40
2018-07-28T03:56:53.913Z,20.20
2018-07-28T03:59:22.341Z,20.00
2018-07-28T04:01:50.822Z,20.00
2018-07-28T04:04:19.267Z,20.20
2018-07-28T04:06:47.729Z,20.20
2018-07-28T04:09:16.213Z,20.20
2018-07-28T04:11:44.721Z,20.20
2018-07-28T04:14:13.321Z,20.10
2018-07-28T04:16:41.946Z,20.00
2018-07-28T04:19:10.529Z,19.90
2018-07-28T04:21:39.101Z,19.90
2018-07-28T04:26:35.839Z,19.70
2018-07-28T04:29:04.349Z,19.80
2018-07-28T04:31:32.848Z,19.70
2018-07-28T04:34:01.328Z,19.60
2018-07-28T04:36:29.848Z,19.70
2018-07-28T04:38:58.312Z,19.80
2018-07-28T04:41:26.761Z,20.00
2018-07-28T04:43:55.233Z,20.20
2018-07-28T04:46:23.650Z,20.40
2018-07-28T04:48:52.184Z,20.50
2018-07-28T04:53:48.788Z,20.70
2018-07-28T04:56:17.235Z,20.80
2018-07-28T04:58:45.676Z,20.90
2018-07-28T05:01:14.133Z,20.90
2018-07-28T05:03:42.593Z,21.10
2018-07-28T05:06:11.022Z,21.10
2018-07-28T05:08:39.539Z,21.20
2018-07-28T05:11:08.022Z,21.20
2018-07-28T05:13:36.635Z,21.30
2018-07-28T05:16:05.311Z,21.20
2018-07-28T05:18:33.798Z,21.10
2018-07-28T05:21:02.317Z,21.10
2018-07-28T05:23:30.759Z,21.30
2018-07-28T05:25:59.175Z,21.50
2018-07-28T05:28:27.607Z,21.60
2018-07-28T05:30:56.090Z,21.70
2018-07-28T05:33:24.579Z,21.80
2018-07-28T05:35:53.675Z,21.70
2018-07-28T05:38:22.125Z,21.70
2018-07-28T05:40:50.591Z,21.70
2018-07-28T05:45:47.366Z,21.80
2018-07-28T05:50:43.989Z,21.90
2018-07-28T05:53:12.472Z,22.00
2018-07-28T05:55:40.989Z,22.10
2018-07-28T05:58:09.440Z,22.20
2018-07-28T06:00:38.010Z,22.30
2018-07-28T06:03:07.498Z,22.40
2018-07-28T06:05:37.270Z,22.60
2018-07-28T06:08:06.432Z,22.70
2018-07-28T06:10:34.904Z,22.70
2018-07-28T06:13:03.891Z,22.70
2018-07-28T06:15:32.393Z,22.70
2018-07-28T06:18:00.881Z,22.70
2018-07-28T06:20:29.349Z,22.80
2018-07-28T06:22:57.776Z,23.00
2018-07-28T06:25:26.309Z,23.20
2018-07-28T06:27:54.856Z,23.40
2018-07-28T06:30:23.335Z,23.60
2018-07-28T06:32:52.831Z,23.80
2018-07-28T06:35:21.633Z,24.10
2018-07-28T06:37:50.177Z,24.30
2018-07-28T06:40:18.712Z,24.50
2018-07-28T06:42:47.315Z,24.70
2018-07-28T06:45:16.821Z,24.80
2018-07-28T06:47:45.348Z,25.00
2018-07-28T06:50:14.439Z,25.00
2018-07-28T06:52:42.970Z,25.10
2018-07-28T06:55:11.520Z,25.10
2018-07-28T06:57:40.144Z,24.90
2018-07-28T07:00:09.487Z,25.00
2018-07-28T07:02:37.977Z,25.00
2018-07-28T07:05:07.759Z,25.10
2018-07-28T07:07:36.858Z,25.00
2018-07-28T07:12:34.033Z,25.10
2018-07-28T07:15:02.621Z,25.20
2018-07-28T07:17:31.580Z,25.10
2018-07-28T07:20:00.306Z,25.10
2018-07-28T07:22:28.892Z,25.20
2018-07-28T07:24:58.430Z,25.30
2018-07-28T07:27:27.552Z,25.20
2018-07-28T07:29:56.108Z,25.20
2018-07-28T07:32:25.552Z,25.30
2018-07-28T07:34:54.508Z,25.40
2018-07-28T07:37:23.319Z,25.40
2018-07-28T07:39:53.925Z,25.40
2018-07-28T07:42:23.412Z,25.50
2018-07-28T07:44:52.049Z,25.60
2018-07-28T07:47:20.672Z,25.70
2018-07-28T07:49:49.853Z,25.80
2018-07-28T07:52:20.158Z,25.90
2018-07-28T07:54:50.166Z,25.90
2018-07-28T07:57:18.738Z,26.00
2018-07-28T07:59:47.399Z,26.20
2018-07-28T08:02:15.860Z,26.20
2018-07-28T08:04:44.475Z,26.00
2018-07-28T08:07:13.048Z,25.90
2018-07-28T08:09:41.746Z,25.90
2018-07-28T08:12:11.077Z,25.90
2018-07-28T08:14:40.135Z,25.90
2018-07-28T08:17:09.344Z,25.90
2018-07-28T08:19:38.022Z,25.80
2018-07-28T08:22:07.050Z,25.60
2018-07-28T08:24:35.710Z,25.60
2018-07-28T08:27:04.334Z,25.60
2018-07-28T08:29:32.774Z,25.50
2018-07-28T08:32:01.253Z,25.40
2018-07-28T08:34:29.946Z,25.40
2018-07-28T08:36:58.485Z,25.40
2018-07-28T08:39:27.142Z,25.40
2018-07-28T08:41:55.678Z,25.40
2018-07-28T08:44:24.345Z,25.40
2018-07-28T08:46:52.914Z,25.40
2018-07-28T08:49:21.530Z,25.30
2018-07-28T08:51:50.804Z,25.30
2018-07-28T08:54:19.265Z,25.20
2018-07-28T08:56:48.089Z,25.20
2018-07-28T08:59:17.363Z,25.30
2018-07-28T09:01:46.014Z,25.40
2018-07-28T09:04:14.593Z,25.70
2018-07-28T09:06:43.206Z,26.00
2018-07-28T09:09:12.258Z,26.10
2018-07-28T09:11:40.829Z,26.10
2018-07-28T09:14:10.261Z,26.30
2018-07-28T09:16:39.104Z,26.40
2018-07-28T09:19:08.648Z,26.60
2018-07-28T09:21:37.299Z,26.70
2018-07-28T09:24:05.849Z,26.90
2018-07-28T09:26:34.377Z,27.40
2018-07-28T09:29:03.193Z,27.90
2018-07-28T09:31:31.857Z,27.80
2018-07-28T09:34:00.320Z,27.80
2018-07-28T09:36:28.872Z,27.80
2018-07-28T09:38:57.361Z,27.80
2018-07-28T09:41:25.871Z,27.70
2018-07-28T09:43:54.500Z,27.70
2018-07-28T09:46:23.160Z,27.80
2018-07-28T09:48:51.719Z,27.60
2018-07-28T09:51:20.273Z,27.40
2018-07-28T09:53:48.829Z,27.30
2018-07-28T09:56:17.472Z,27.20
2018-07-28T09:58:46.069Z,27.10
2018-07-28T10:01:17.482Z,27.00
2018-07-28T10:03:46.638Z,27.10
2018-07-28T10:06:15.147Z,27.20
2018-07-28T10:13:40.333Z,28.00
2018-07-28T10:16:08.977Z,28.40
2018-07-28T10:21:05.825Z,28.60
2018-07-28T10:26:02.670Z,28.60
2018-07-28T10:28:31.777Z,28.50
2018-07-28T10:33:28.776Z,29.00
2018-07-28T10:35:57.361Z,29.40
2018-07-28T10:38:25.902Z,29.40
2018-07-28T10:40:54.977Z,29.50
2018-07-28T10:43:23.551Z,29.50
2018-07-28T10:45:52.418Z,29.70
2018-07-28T10:48:20.928Z,29.90
2018-07-28T10:50:49.528Z,29.90
2018-07-28T10:53:18.112Z,30.20
2018-07-28T10:55:46.827Z,30.10
2018-07-28T10:58:15.560Z,30.10
2018-07-28T11:00:44.076Z,29.90
2018-07-28T11:03:12.728Z,29.70
2018-07-28T11:05:41.244Z,29.70
2018-07-28T11:08:09.787Z,29.60
2018-07-28T11:10:38.389Z,29.50
2018-07-28T11:13:07.022Z,29.60
2018-07-28T11:15:36.571Z,29.90
2018-07-28T11:18:05.163Z,30.30
2018-07-28T11:20:33.762Z,30.70
2018-07-28T11:23:02.469Z,30.60
2018-07-28T11:27:59.271Z,30.60
2018-07-28T11:30:27.898Z,30.60
2018-07-28T11:33:07.564Z,30.70
2018-07-28T11:35:47.522Z,30.70
2018-07-28T11:41:01.261Z,31.00
2018-07-28T11:43:40.987Z,31.10
2018-07-28T11:46:09.480Z,31.40
2018-07-28T11:48:38.895Z,31.80
2018-07-28T11:51:07.906Z,32.10
2018-07-28T11:53:36.480Z,32.00
2018-07-28T11:56:05.618Z,31.90
2018-07-28T11:58:34.563Z,31.80
2018-07-28T12:01:04.293Z,31.80
2018-07-28T12:03:33.206Z,31.70
2018-07-28T12:06:01.874Z,31.70
2018-07-28T12:08:31.110Z,31.60
2018-07-28T12:10:59.976Z,31.50
2018-07-28T12:13:28.542Z,31.40
2018-07-28T12:15:57.308Z,31.30
2018-07-28T12:20:54.500Z,31.30
2018-07-28T12:23:23.042Z,31.50
2018-07-28T12:25:51.606Z,31.80
2018-07-28T12:28:21.068Z,31.90
2018-07-28T12:30:49.870Z,31.90
2018-07-28T12:33:18.382Z,32.00
2018-07-28T12:35:46.986Z,31.80
2018-07-28T12:38:15.494Z,31.70
2018-07-28T12:40:44.838Z,31.50
2018-07-28T12:43:13.403Z,31.10
2018-07-28T12:45:42.045Z,30.80
2018-07-28T12:48:10.567Z,30.50
2018-07-28T12:50:39.162Z,30.30
2018-07-28T12:53:07.959Z,28.80
2018-07-28T12:55:36.829Z,28.00
2018-07-28T12:58:05.381Z,28.00
2018-07-28T13:00:33.961Z,28.10
2018-07-28T13:03:02.661Z,27.50
2018-07-28T13:05:31.140Z,26.60
2018-07-28T13:07:59.676Z,25.50
2018-07-28T13:10:28.338Z,24.70
2018-07-28T13:12:56.944Z,24.30
2018-07-28T13:15:25.457Z,24.20
2018-07-28T13:17:54.058Z,24.10
2018-07-28T13:20:22.591Z,24.20
2018-07-28T13:22:51.175Z,24.20
2018-07-28T13:25:19.675Z,24.60
2018-07-28T13:27:50.682Z,24.90
2018-07-28T13:30:19.292Z,25.20
2018-07-28T13:32:49.896Z,25.50
2018-07-28T13:35:18.461Z,25.40
2018-07-28T13:37:46.991Z,25.30
2018-07-28T13:40:16.236Z,25.90
2018-07-28T13:42:44.846Z,26.50
2018-07-28T13:45:13.361Z,26.90
2018-07-28T13:47:41.977Z,27.20
2018-07-28T13:50:10.461Z,27.50
2018-07-28T13:52:38.937Z,27.70
2018-07-28T13:55:07.479Z,27.50
2018-07-28T13:57:36.113Z,27.20
2018-07-28T14:00:05.862Z,27.20
2018-07-28T14:02:34.491Z,27.10
2018-07-28T14:07:31.313Z,27.40
2018-07-28T14:09:59.874Z,27.30
2018-07-28T14:12:28.506Z,27.20
2018-07-28T14:14:57.095Z,27.10
2018-07-28T14:17:25.572Z,27.40
2018-07-28T14:19:54.123Z,27.60
2018-07-28T14:22:22.649Z,27.80
2018-07-28T14:24:51.183Z,27.60
2018-07-28T14:27:19.689Z,27.40
2018-07-28T14:29:48.185Z,27.40
2018-07-28T14:32:17.475Z,27.50
2018-07-28T14:34:46.080Z,27.60
2018-07-28T14:37:14.945Z,27.50
2018-07-28T14:39:43.499Z,27.60
2018-07-28T14:42:12.208Z,27.30
2018-07-28T14:44:40.893Z,27.30
2018-07-28T14:47:09.433Z,27.60
2018-07-28T14:49:38.074Z,27.60
2018-07-28T14:52:06.719Z,27.70
2018-07-28T14:54:35.417Z,27.60
2018-07-28T14:57:04.694Z,27.50
2018-07-28T14:59:33.326Z,27.50
2018-07-28T15:02:01.908Z,27.60
2018-07-28T15:04:30.469Z,27.60
2018-07-28T15:06:59.071Z,27.60
2018-07-28T15:09:27.594Z,27.70
2018-07-28T15:11:56.114Z,27.90
2018-07-28T15:14:24.701Z,28.00
2018-07-28T15:16:53.294Z,28.10
2018-07-28T15:19:21.828Z,28.10
2018-07-28T15:21:50.383Z,28.00
2018-07-28T15:24:19.477Z,28.10
2018-07-28T15:29:16.996Z,28.20
2018-07-28T15:31:46.040Z,28.20
2018-07-28T15:34:15.483Z,28.20
2018-07-28T15:36:44.134Z,28.10
2018-07-28T15:39:13.230Z,28.10
2018-07-28T15:41:41.930Z,27.90
2018-07-28T16:07:50.033Z,27.50
2018-07-28T16:10:18.690Z,27.40
2018-07-28T16:15:15.409Z,27.50
2018-07-28T16:17:43.904Z,27.40
2018-07-28T16:20:12.583Z,27.30
2018-07-28T16:22:41.210Z,27.20
2018-07-28T16:25:10.458Z,27.10
2018-07-28T16:27:38.987Z,27.00
2018-07-28T16:32:36.231Z,27.00
2018-07-28T16:35:05.322Z,26.80
2018-07-28T16:40:02.796Z,26.80
2018-07-28T16:42:31.364Z,26.80
2018-07-28T16:44:59.779Z,26.80
2018-07-28T16:49:56.452Z,26.80
2018-07-28T16:52:26.117Z,26.60
2018-07-28T17:00:08.894Z,26.60
2018-07-28T17:02:37.528Z,26.50
2018-07-28T17:05:06.113Z,26.40
2018-07-28T17:07:34.707Z,26.40
2018-07-28T17:10:03.360Z,26.40
2018-07-28T17:12:31.924Z,26.40
2018-07-28T17:15:00.452Z,26.40
2018-07-28T17:17:28.990Z,26.40
2018-07-28T17:19:58.102Z,26.40
2018-07-28T17:22:26.613Z,26.30
2018-07-28T17:24:55.089Z,26.30
2018-07-28T17:27:23.645Z,26.30
2018-07-28T17:29:52.230Z,26.30
2018-07-28T17:32:20.857Z,26.30
2018-07-28T17:34:49.843Z,26.30
2018-07-28T17:37:18.957Z,26.30
2018-07-28T17:39:47.488Z,26.20
2018-07-28T17:42:16.101Z,26.20
2018-07-28T17:44:45.213Z,26.10
2018-07-28T17:47:13.882Z,26.10
2018-07-28T17:49:42.630Z,26.00
2018-07-28T17:52:11.811Z,26.00
2018-07-28T17:54:40.398Z,26.00
2018-07-28T17:57:09.129Z,25.90
2018-07-28T17:59:38.096Z,25.80
2018-07-28T18:02:07.197Z,25.80
2018-07-28T18:04:36.381Z,25.80
2018-07-28T18:07:05.646Z,25.80
2018-07-28T18:09:35.197Z,25.80
2018-07-28T18:12:04.030Z,25.80
2018-07-28T18:14:33.702Z,25.80
2018-07-28T18:17:02.459Z,25.70
2018-07-28T18:19:31.697Z,25.70
2018-07-28T18:22:00.272Z,25.70
2018-07-28T18:24:28.872Z,25.70
2018-07-28T18:26:57.424Z,25.70
2018-07-28T18:29:27.663Z,25.60
2018-07-28T18:31:56.171Z,25.60
2018-07-28T18:34:24.778Z,25.50
2018-07-28T18:36:53.551Z,25.50
2018-07-28T18:39:22.204Z,25.40
2018-07-28T18:41:50.894Z,25.50
2018-07-28T18:44:19.432Z,25.50
2018-07-28T18:46:48.285Z,25.50
2018-07-28T18:49:16.951Z,25.50
2018-07-28T18:51:45.735Z,25.40
2018-07-28T18:54:14.216Z,25.40
2018-07-28T18:56:43.321Z,25.20
2018-07-28T18:59:11.889Z,25.20
2018-07-28T19:01:40.674Z,25.00
2018-07-28T19:04:09.457Z,24.90
2018-07-28T19:06:38.240Z,24.90
2018-07-28T19:09:13.320Z,25.00
2018-07-28T19:11:43.420Z,25.00
2018-07-28T19:14:17.518Z,25.00
2018-07-28T19:16:46.330Z,25.00
2018-07-28T19:19:16.249Z,25.00
2018-07-28T19:21:45.482Z,25.00
2018-07-28T19:26:43.405Z,24.90
2018-07-28T19:29:17.710Z,24.80
2018-07-28T19:31:46.428Z,24.80
2018-07-28T19:34:14.905Z,24.70
2018-07-28T19:36:49.230Z,24.70
2018-07-28T19:39:19.753Z,24.70
2018-07-28T19:41:53.509Z,24.70
2018-07-28T19:44:22.105Z,24.50
2018-07-28T19:46:51.277Z,24.50
2018-07-28T19:49:19.796Z,24.40
2018-07-28T19:51:48.385Z,24.40
2018-07-28T19:54:17.645Z,24.40
2018-07-28T19:56:46.676Z,24.30
2018-07-28T19:59:15.164Z,24.20
2018-07-28T20:01:43.809Z,24.10
2018-07-28T20:04:12.545Z,24.00
2018-07-28T20:06:41.675Z,23.90
2018-07-28T20:09:10.761Z,23.90
2018-07-28T20:11:39.604Z,23.90
2018-07-28T20:14:08.190Z,23.90
2018-07-28T20:16:36.756Z,23.80
2018-07-28T20:19:05.704Z,23.70
2018-07-28T20:21:34.193Z,23.60
2018-07-28T20:24:03.212Z,23.40
2018-07-28T20:26:31.708Z,23.40
2018-07-28T20:29:00.559Z,23.30
2018-07-28T20:31:29.183Z,23.30
2018-07-28T20:33:57.690Z,23.30
2018-07-28T20:36:26.161Z,23.30
2018-07-28T20:38:54.722Z,23.30
2018-07-28T20:41:23.364Z,23.20
2018-07-28T20:43:51.729Z,23.10
2018-07-28T20:46:20.769Z,23.10
2018-07-28T20:48:50.025Z,23.00
2018-07-28T20:51:19.365Z,22.90
2018-07-28T20:53:47.869Z,22.90
2018-07-28T20:56:16.494Z,22.90
2018-07-28T20:58:45.768Z,22.80
2018-07-28T21:01:14.314Z,22.80
2018-07-28T21:03:42.901Z,22.80
2018-07-28T21:06:11.519Z,22.70
2018-07-28T21:08:40.195Z,22.70
2018-07-28T21:11:08.643Z,22.70
2018-07-28T21:13:37.767Z,22.70
2018-07-28T21:16:06.421Z,22.70
2018-07-28T21:18:34.998Z,22.70
2018-07-28T21:21:03.608Z,22.60
2018-07-28T21:23:32.185Z,22.50
2018-07-28T21:26:00.713Z,22.50
2018-07-28T21:28:29.263Z,22.40
2018-07-28T21:30:58.487Z,22.40
2018-07-28T21:33:27.043Z,22.30
2018-07-28T21:35:55.512Z,22.30
2018-07-28T21:38:24.573Z,22.30
2018-07-28T21:40:53.072Z,22.30
2018-07-28T21:43:21.673Z,22.20
2018-07-28T21:45:50.176Z,22.20
2018-07-28T21:48:18.734Z,22.20
2018-07-28T21:50:47.385Z,22.10
2018-07-28T21:53:15.984Z,22.00
2018-07-28T21:55:44.442Z,22.00
2018-07-28T21:58:13.100Z,22.00
2018-07-28T22:00:47.542Z,21.90
2018-07-28T22:03:16.048Z,21.90
2018-07-28T22:05:44.564Z,21.90
2018-07-28T22:08:13.194Z,21.70
2018-07-28T22:10:41.777Z,21.80
2018-07-28T22:13:10.254Z,21.90
2018-07-28T22:15:39.388Z,21.80
2018-07-28T22:18:07.952Z,21.70
2018-07-28T22:20:36.445Z,21.60
2018-07-28T22:23:04.920Z,21.60
2018-07-28T22:25:34.242Z,21.50
2018-07-28T22:28:02.785Z,21.40
2018-07-28T22:30:31.369Z,21.30
2018-07-28T22:32:59.888Z,21.20
2018-07-28T22:35:28.401Z,21.20
2018-07-28T22:37:56.909Z,21.20
2018-07-28T22:40:25.411Z,21.30
2018-07-28T22:42:53.930Z,21.40
2018-07-28T22:45:22.434Z,21.60
2018-07-28T22:47:57.272Z,21.70
2018-07-28T22:50:25.825Z,21.70
2018-07-28T22:52:54.376Z,21.80
2018-07-28T22:55:23.003Z,21.80
2018-07-28T22:57:51.554Z,21.80
2018-07-28T23:00:20.061Z,21.80
2018-07-28T23:02:48.511Z,21.80
2018-07-28T23:05:17.777Z,21.80
2018-07-28T23:07:46.303Z,21.80
2018-07-28T23:10:14.869Z,21.80
2018-07-28T23:12:43.459Z,21.80
2018-07-28T23:15:12.412Z,21.70
2018-07-28T23:17:41.248Z,21.60
2018-07-28T23:20:09.817Z,21.60
2018-07-28T23:22:38.526Z,21.60
2018-07-28T23:25:07.493Z,21.50
2018-07-28T23:27:36.147Z,21.50
2018-07-28T23:30:07.409Z,21.50
2018-07-28T23:32:37.053Z,21.50
2018-07-28T23:35:06.298Z,21.50
2018-07-28T23:37:34.838Z,21.30
2018-07-28T23:40:03.480Z,21.30
2018-07-28T23:42:31.996Z,21.20
2018-07-28T23:45:00.527Z,21.20
2018-07-28T23:47:29.100Z,21.20
2018-07-28T23:49:57.644Z,21.10
2018-07-28T23:52:26.325Z,21.10
2018-07-28T23:54:54.844Z,21.10
2018-07-28T23:57:23.341Z,21.00
2018-07-28T23:59:51.824Z,21.00
